sensor_id;sensor_type;location;lat;lon;timestamp;temperature;humidity
4518;DHT22;2271;49.464;11.070;2022-08-01T00:01:22;23.60;99.90
4518;DHT22;2271;49.464;11.070;2022-08-01T00:03:47;23.70;99.90
4518;DHT22;2271;49.464;11.070;2022-08-01T00:06:13;23.70;99.90
4518;DHT22;2271;49.464;11.070;2022-08-01T00:08:39;23.70;99.90
4518;DHT22;2271;49.464;11.070;2022-08-01T00:11:04;23.60;99.90
4518;DHT22;2271;49.464;11.070;2022-08-01T00:13:30;23.60;99.90
4518;DHT22;2271;49.464;11.070;2022-08-01T00:15:56;23.60;99.90
4518;DHT22;2271;49.464;11.070;2022-08-01T00:18:21;23.50;99.90
4518;DHT22;2271;49.464;11.070;2022-08-01T00:20:47;23.50;99.90
4518;DHT22;2271;49.464;11.070;2022-08-01T00:23:13;23.50;99.90
4518;DHT22;2271;49.464;11.070;2022-08-01T00:25:38;23.50;99.90
4518;DHT22;2271;49.464;11.070;2022-08-01T00:28:04;23.50;99.90
4518;DHT22;2271;49.464;11.070;2022-08-01T00:30:34;23.40;99.90
4518;DHT22;2271;49.464;11.070;2022-08-01T00:33:00;23.40;99.90
4518;DHT22;2271;49.464;11.070;2022-08-01T00:35:26;23.40;99.90
4518;DHT22;2271;49.464;11.070;2022-08-01T00:37:52;23.40;99.90
4518;DHT22;2271;49.464;11.070;2022-08-01T00:40:18;23.30;99.90
4518;DHT22;2271;49.464;11.070;2022-08-01T00:42:43;23.30;99.90
4518;DHT22;2271;49.464;11.070;2022-08-01T00:45:10;23.30;99.90
4518;DHT22;2271;49.464;11.070;2022-08-01T00:47:36;23.20;99.90
4518;DHT22;2271;49.464;11.070;2022-08-01T00:50:04;23.20;99.90
4518;DHT22;2271;49.464;11.070;2022-08-01T00:52:30;23.20;99.90
4518;DHT22;2271;49.464;11.070;2022-08-01T00:54:56;23.20;99.90
4518;DHT22;2271;49.464;11.070;2022-08-01T00:57:22;23.20;99.90
4518;DHT22;2271;49.464;11.070;2022-08-01T00:59:48;23.10;99.90
4518;DHT22;2271;49.464;11.070;2022-08-01T01:02:14;23.10;99.90
4518;DHT22;2271;49.464;11.070;2022-08-01T01:04:39;23.10;99.90
4518;DHT22;2271;49.464;11.070;2022-08-01T01:07:28;23.10;99.90
4518;DHT22;2271;49.464;11.070;2022-08-01T01:10:03;23.10;99.90
4518;DHT22;2271;49.464;11.070;2022-08-01T01:15:21;23.10;99.90
4518;DHT22;2271;49.464;11.070;2022-08-01T01:18:03;23.10;99.90
4518;DHT22;2271;49.464;11.070;2022-08-01T01:20:37;23.00;99.90
4518;DHT22;2271;49.464;11.070;2022-08-01T01:29:05;22.90;99.90
4518;DHT22;2271;49.464;11.070;2022-08-01T01:31:56;22.90;99.90
4518;DHT22;2271;49.464;11.070;2022-08-01T01:34:23;22.90;99.90
4518;DHT22;2271;49.464;11.070;2022-08-01T01:36:52;22.90;99.90
4518;DHT22;2271;49.464;11.070;2022-08-01T01:39:20;22.90;99.90
4518;DHT22;2271;49.464;11.070;2022-08-01T01:41:48;22.90;99.90
4518;DHT22;2271;49.464;11.070;2022-08-01T01:44:16;22.80;99.90
4518;DHT22;2271;49.464;11.070;2022-08-01T01:46:43;22.80;99.90
4518;DHT22;2271;49.464;11.070;2022-08-01T01:49:11;22.70;99.90
4518;DHT22;2271;49.464;11.070;2022-08-01T01:51:38;22.70;99.90
4518;DHT22;2271;49.464;11.070;2022-08-01T01:54:04;22.70;99.90
4518;DHT22;2271;49.464;11.070;2022-08-01T01:56:32;22.70;99.90
4518;DHT22;2271;49.464;11.070;2022-08-01T01:59:01;22.70;99.90
4518;DHT22;2271;49.464;11.070;2022-08-01T02:01:29;22.70;99.90
4518;DHT22;2271;49.464;11.070;2022-08-01T02:03:57;22.60;99.90
4518;DHT22;2271;49.464;11.070;2022-08-01T02:06:24;22.60;99.90
4518;DHT22;2271;49.464;11.070;2022-08-01T02:08:51;22.60;99.90
4518;DHT22;2271;49.464;11.070;2022-08-01T02:11:19;22.60;99.90
4518;DHT22;2271;49.464;11.070;2022-08-01T02:13:48;22.60;99.90
4518;DHT22;2271;49.464;11.070;2022-08-01T02:16:16;22.50;99.90
4518;DHT22;2271;49.464;11.070;2022-08-01T02:18:42;22.50;99.90
4518;DHT22;2271;49.464;11.070;2022-08-01T02:21:10;22.50;99.90
4518;DHT22;2271;49.464;11.070;2022-08-01T02:23:39;22.50;99.90
4518;DHT22;2271;49.464;11.070;2022-08-01T02:26:09;22.50;99.90
4518;DHT22;2271;49.464;11.070;2022-08-01T02:28:56;22.60;99.90
4518;DHT22;2271;49.464;11.070;2022-08-01T02:31:22;22.50;99.90
4518;DHT22;2271;49.464;11.070;2022-08-01T02:34:01;22.60;99.90
4518;DHT22;2271;49.464;11.070;2022-08-01T02:36:29;22.60;99.90
4518;DHT22;2271;49.464;11.070;2022-08-01T02:38:57;22.50;99.90
4518;DHT22;2271;49.464;11.070;2022-08-01T02:41:26;22.50;99.90
4518;DHT22;2271;49.464;11.070;2022-08-01T02:43:56;22.50;99.90
4518;DHT22;2271;49.464;11.070;2022-08-01T02:46:31;22.50;99.90
4518;DHT22;2271;49.464;11.070;2022-08-01T02:49:00;22.50;99.90
4518;DHT22;2271;49.464;11.070;2022-08-01T02:51:28;22.40;99.90
4518;DHT22;2271;49.464;11.070;2022-08-01T02:53:56;22.40;99.90
4518;DHT22;2271;49.464;11.070;2022-08-01T02:56:23;22.40;99.90
4518;DHT22;2271;49.464;11.070;2022-08-01T02:58:51;22.40;99.90
4518;DHT22;2271;49.464;11.070;2022-08-01T03:01:17;22.30;99.90
4518;DHT22;2271;49.464;11.070;2022-08-01T03:03:45;22.30;99.90
4518;DHT22;2271;49.464;11.070;2022-08-01T03:06:11;22.30;99.90
4518;DHT22;2271;49.464;11.070;2022-08-01T03:08:38;22.30;99.90
4518;DHT22;2271;49.464;11.070;2022-08-01T03:11:05;22.30;99.90
4518;DHT22;2271;49.464;11.070;2022-08-01T03:13:32;22.20;99.90
4518;DHT22;2271;49.464;11.070;2022-08-01T03:15:59;22.20;99.90
4518;DHT22;2271;49.464;11.070;2022-08-01T03:18:26;22.20;99.90
4518;DHT22;2271;49.464;11.070;2022-08-01T03:20:54;22.10;99.90
4518;DHT22;2271;49.464;11.070;2022-08-01T03:23:22;22.10;99.90
4518;DHT22;2271;49.464;11.070;2022-08-01T03:25:49;22.10;99.90
4518;DHT22;2271;49.464;11.070;2022-08-01T03:28:17;22.10;99.90
4518;DHT22;2271;49.464;11.070;2022-08-01T03:30:44;22.10;99.90
4518;DHT22;2271;49.464;11.070;2022-08-01T03:33:10;22.10;99.90
4518;DHT22;2271;49.464;11.070;2022-08-01T03:35:41;22.10;99.90
4518;DHT22;2271;49.464;11.070;2022-08-01T03:38:08;22.10;99.90
4518;DHT22;2271;49.464;11.070;2022-08-01T03:40:37;22.10;99.90
4518;DHT22;2271;49.464;11.070;2022-08-01T03:43:05;22.10;99.90
4518;DHT22;2271;49.464;11.070;2022-08-01T03:45:37;22.10;99.90
4518;DHT22;2271;49.464;11.070;2022-08-01T03:48:12;22.00;99.90
4518;DHT22;2271;49.464;11.070;2022-08-01T03:50:46;22.00;99.90
4518;DHT22;2271;49.464;11.070;2022-08-01T03:53:13;22.00;99.90
4518;DHT22;2271;49.464;11.070;2022-08-01T03:55:41;22.00;99.90
4518;DHT22;2271;49.464;11.070;2022-08-01T03:58:09;22.00;99.90
4518;DHT22;2271;49.464;11.070;2022-08-01T04:00:36;22.00;99.90
4518;DHT22;2271;49.464;11.070;2022-08-01T04:03:06;22.00;99.90
4518;DHT22;2271;49.464;11.070;2022-08-01T04:05:33;22.00;99.90
4518;DHT22;2271;49.464;11.070;2022-08-01T04:07:58;22.00;99.90
4518;DHT22;2271;49.464;11.070;2022-08-01T04:10:25;22.00;99.90
4518;DHT22;2271;49.464;11.070;2022-08-01T04:12:51;22.10;99.90
4518;DHT22;2271;49.464;11.070;2022-08-01T04:15:17;22.10;99.90
4518;DHT22;2271;49.464;11.070;2022-08-01T04:17:43;22.10;99.90
4518;DHT22;2271;49.464;11.070;2022-08-01T04:20:09;22.10;99.90
4518;DHT22;2271;49.464;11.070;2022-08-01T04:22:36;22.10;99.90
4518;DHT22;2271;49.464;11.070;2022-08-01T04:25:07;22.10;99.90
4518;DHT22;2271;49.464;11.070;2022-08-01T04:27:37;22.10;99.90
4518;DHT22;2271;49.464;11.070;2022-08-01T04:30:06;22.10;99.90
4518;DHT22;2271;49.464;11.070;2022-08-01T04:32:33;22.10;99.90
4518;DHT22;2271;49.464;11.070;2022-08-01T04:35:03;22.10;99.90
4518;DHT22;2271;49.464;11.070;2022-08-01T04:37:30;22.10;99.90
4518;DHT22;2271;49.464;11.070;2022-08-01T04:39:57;22.20;99.90
4518;DHT22;2271;49.464;11.070;2022-08-01T04:42:24;22.20;99.90
4518;DHT22;2271;49.464;11.070;2022-08-01T04:44:50;22.10;99.90
4518;DHT22;2271;49.464;11.070;2022-08-01T04:47:16;22.20;99.90
4518;DHT22;2271;49.464;11.070;2022-08-01T04:49:43;22.20;99.90
4518;DHT22;2271;49.464;11.070;2022-08-01T04:52:11;22.20;99.90
4518;DHT22;2271;49.464;11.070;2022-08-01T04:54:37;22.20;99.90
4518;DHT22;2271;49.464;11.070;2022-08-01T04:57:04;22.20;99.90
4518;DHT22;2271;49.464;11.070;2022-08-01T04:59:31;22.30;99.90
4518;DHT22;2271;49.464;11.070;2022-08-01T05:02:13;22.30;99.90
4518;DHT22;2271;49.464;11.070;2022-08-01T05:04:41;22.30;99.90
4518;DHT22;2271;49.464;11.070;2022-08-01T05:07:07;22.40;99.90
4518;DHT22;2271;49.464;11.070;2022-08-01T05:09:33;22.40;99.90
4518;DHT22;2271;49.464;11.070;2022-08-01T05:12:00;22.40;99.90
4518;DHT22;2271;49.464;11.070;2022-08-01T05:14:27;22.40;99.90
4518;DHT22;2271;49.464;11.070;2022-08-01T05:16:54;22.40;99.90
4518;DHT22;2271;49.464;11.070;2022-08-01T05:19:20;22.40;99.90
4518;DHT22;2271;49.464;11.070;2022-08-01T05:21:46;22.40;99.90
4518;DHT22;2271;49.464;11.070;2022-08-01T05:24:12;22.40;99.90
4518;DHT22;2271;49.464;11.070;2022-08-01T05:26:38;22.50;99.90
4518;DHT22;2271;49.464;11.070;2022-08-01T05:29:04;22.60;99.90
4518;DHT22;2271;49.464;11.070;2022-08-01T05:31:30;22.60;99.90
4518;DHT22;2271;49.464;11.070;2022-08-01T05:33:58;22.70;99.90
4518;DHT22;2271;49.464;11.070;2022-08-01T05:36:23;22.70;99.90
4518;DHT22;2271;49.464;11.070;2022-08-01T05:38:49;22.80;99.90
4518;DHT22;2271;49.464;11.070;2022-08-01T05:41:14;22.80;99.90
4518;DHT22;2271;49.464;11.070;2022-08-01T05:43:41;22.90;99.90
4518;DHT22;2271;49.464;11.070;2022-08-01T05:46:07;22.90;99.90
4518;DHT22;2271;49.464;11.070;2022-08-01T05:48:33;22.90;99.90
4518;DHT22;2271;49.464;11.070;2022-08-01T05:50:58;22.90;99.90
4518;DHT22;2271;49.464;11.070;2022-08-01T05:53:24;23.00;99.90
4518;DHT22;2271;49.464;11.070;2022-08-01T05:55:49;23.00;99.90
4518;DHT22;2271;49.464;11.070;2022-08-01T05:58:15;23.10;99.90
4518;DHT22;2271;49.464;11.070;2022-08-01T06:00:41;23.20;99.90
4518;DHT22;2271;49.464;11.070;2022-08-01T06:03:06;23.20;99.90
4518;DHT22;2271;49.464;11.070;2022-08-01T06:05:32;23.10;99.90
4518;DHT22;2271;49.464;11.070;2022-08-01T06:07:57;23.10;99.90
4518;DHT22;2271;49.464;11.070;2022-08-01T06:10:23;23.10;99.90
4518;DHT22;2271;49.464;11.070;2022-08-01T06:12:49;23.10;99.90
4518;DHT22;2271;49.464;11.070;2022-08-01T06:15:15;23.10;99.90
4518;DHT22;2271;49.464;11.070;2022-08-01T06:17:40;23.20;99.90
4518;DHT22;2271;49.464;11.070;2022-08-01T06:20:07;23.30;99.90
4518;DHT22;2271;49.464;11.070;2022-08-01T06:22:33;23.40;99.90
4518;DHT22;2271;49.464;11.070;2022-08-01T06:24:59;23.50;99.90
4518;DHT22;2271;49.464;11.070;2022-08-01T06:27:24;23.60;99.90
4518;DHT22;2271;49.464;11.070;2022-08-01T06:29:51;23.80;99.90
4518;DHT22;2271;49.464;11.070;2022-08-01T06:32:21;23.90;99.90
4518;DHT22;2271;49.464;11.070;2022-08-01T06:34:50;24.00;99.90
4518;DHT22;2271;49.464;11.070;2022-08-01T06:37:15;24.10;99.90
4518;DHT22;2271;49.464;11.070;2022-08-01T06:39:41;24.10;99.90
4518;DHT22;2271;49.464;11.070;2022-08-01T06:42:07;24.00;99.90
4518;DHT22;2271;49.464;11.070;2022-08-01T06:44:34;23.90;99.90
4518;DHT22;2271;49.464;11.070;2022-08-01T06:47:00;23.90;99.90
4518;DHT22;2271;49.464;11.070;2022-08-01T06:49:26;23.90;99.90
4518;DHT22;2271;49.464;11.070;2022-08-01T06:51:51;23.90;99.90
4518;DHT22;2271;49.464;11.070;2022-08-01T06:54:17;23.80;99.90
4518;DHT22;2271;49.464;11.070;2022-08-01T06:56:43;23.70;99.90
4518;DHT22;2271;49.464;11.070;2022-08-01T06:59:08;23.70;99.90
4518;DHT22;2271;49.464;11.070;2022-08-01T07:01:34;23.70;99.90
4518;DHT22;2271;49.464;11.070;2022-08-01T07:04:00;23.60;99.90
4518;DHT22;2271;49.464;11.070;2022-08-01T07:06:26;23.60;99.90
4518;DHT22;2271;49.464;11.070;2022-08-01T07:08:52;23.60;99.90
4518;DHT22;2271;49.464;11.070;2022-08-01T07:11:19;23.60;99.90
4518;DHT22;2271;49.464;11.070;2022-08-01T07:13:44;23.70;99.90
4518;DHT22;2271;49.464;11.070;2022-08-01T07:16:14;23.60;99.90
4518;DHT22;2271;49.464;11.070;2022-08-01T07:18:40;23.70;99.90
4518;DHT22;2271;49.464;11.070;2022-08-01T07:21:05;23.70;99.90
4518;DHT22;2271;49.464;11.070;2022-08-01T07:23:32;23.70;99.90
4518;DHT22;2271;49.464;11.070;2022-08-01T07:25:58;23.80;99.90
4518;DHT22;2271;49.464;11.070;2022-08-01T07:28:24;23.90;99.90
4518;DHT22;2271;49.464;11.070;2022-08-01T07:30:50;24.10;99.90
4518;DHT22;2271;49.464;11.070;2022-08-01T07:33:15;24.20;99.90
4518;DHT22;2271;49.464;11.070;2022-08-01T07:35:41;24.20;99.90
4518;DHT22;2271;49.464;11.070;2022-08-01T07:38:07;24.30;99.90
4518;DHT22;2271;49.464;11.070;2022-08-01T07:40:33;24.40;99.90
4518;DHT22;2271;49.464;11.070;2022-08-01T07:42:59;24.70;99.90
4518;DHT22;2271;49.464;11.070;2022-08-01T07:45:24;24.80;99.90
4518;DHT22;2271;49.464;11.070;2022-08-01T07:47:52;25.30;99.90
4518;DHT22;2271;49.464;11.070;2022-08-01T07:50:17;25.70;99.90
4518;DHT22;2271;49.464;11.070;2022-08-01T07:52:43;25.90;99.90
4518;DHT22;2271;49.464;11.070;2022-08-01T07:55:10;25.90;99.90
4518;DHT22;2271;49.464;11.070;2022-08-01T07:57:36;26.00;99.90
4518;DHT22;2271;49.464;11.070;2022-08-01T08:00:06;26.20;99.90
4518;DHT22;2271;49.464;11.070;2022-08-01T08:02:33;26.20;99.90
4518;DHT22;2271;49.464;11.070;2022-08-01T08:04:59;26.00;99.90
4518;DHT22;2271;49.464;11.070;2022-08-01T08:07:24;26.00;99.90
4518;DHT22;2271;49.464;11.070;2022-08-01T08:09:50;26.00;99.90
4518;DHT22;2271;49.464;11.070;2022-08-01T08:12:16;25.90;99.90
4518;DHT22;2271;49.464;11.070;2022-08-01T08:14:41;25.80;99.90
4518;DHT22;2271;49.464;11.070;2022-08-01T08:17:07;26.00;99.90
4518;DHT22;2271;49.464;11.070;2022-08-01T08:19:33;26.20;99.90
4518;DHT22;2271;49.464;11.070;2022-08-01T08:22:00;26.60;99.90
4518;DHT22;2271;49.464;11.070;2022-08-01T08:24:26;27.10;99.90
4518;DHT22;2271;49.464;11.070;2022-08-01T08:27:00;27.20;99.90
4518;DHT22;2271;49.464;11.070;2022-08-01T08:29:28;27.40;99.90
4518;DHT22;2271;49.464;11.070;2022-08-01T08:31:56;27.60;99.90
4518;DHT22;2271;49.464;11.070;2022-08-01T08:34:21;27.80;99.90
4518;DHT22;2271;49.464;11.070;2022-08-01T08:36:48;27.70;99.90
4518;DHT22;2271;49.464;11.070;2022-08-01T08:39:14;27.60;99.90
4518;DHT22;2271;49.464;11.070;2022-08-01T08:41:40;27.50;99.90
4518;DHT22;2271;49.464;11.070;2022-08-01T08:44:07;27.70;99.90
4518;DHT22;2271;49.464;11.070;2022-08-01T08:46:33;28.10;99.90
4518;DHT22;2271;49.464;11.070;2022-08-01T08:49:03;28.20;99.90
4518;DHT22;2271;49.464;11.070;2022-08-01T08:51:31;27.90;99.90
4518;DHT22;2271;49.464;11.070;2022-08-01T08:53:58;27.50;99.90
4518;DHT22;2271;49.464;11.070;2022-08-01T08:56:26;27.00;99.90
4518;DHT22;2271;49.464;11.070;2022-08-01T08:58:55;26.70;99.90
4518;DHT22;2271;49.464;11.070;2022-08-01T09:01:20;26.70;99.90
4518;DHT22;2271;49.464;11.070;2022-08-01T09:03:47;27.00;99.90
4518;DHT22;2271;49.464;11.070;2022-08-01T09:06:13;27.00;99.90
4518;DHT22;2271;49.464;11.070;2022-08-01T09:08:39;27.20;99.90
4518;DHT22;2271;49.464;11.070;2022-08-01T09:11:05;27.70;99.90
4518;DHT22;2271;49.464;11.070;2022-08-01T09:13:31;28.10;99.90
4518;DHT22;2271;49.464;11.070;2022-08-01T09:15:57;28.40;99.90
4518;DHT22;2271;49.464;11.070;2022-08-01T09:23:51;27.70;99.90
4518;DHT22;2271;49.464;11.070;2022-08-01T09:26:35;27.10;99.90
4518;DHT22;2271;49.464;11.070;2022-08-01T09:29:05;26.80;99.90
4518;DHT22;2271;49.464;11.070;2022-08-01T09:31:40;26.60;99.90
4518;DHT22;2271;49.464;11.070;2022-08-01T09:34:07;26.40;99.90
4518;DHT22;2271;49.464;11.070;2022-08-01T09:37:04;26.30;99.90
4518;DHT22;2271;49.464;11.070;2022-08-01T09:39:36;26.10;99.90
4518;DHT22;2271;49.464;11.070;2022-08-01T09:42:26;26.10;99.90
4518;DHT22;2271;49.464;11.070;2022-08-01T09:44:52;26.00;99.90
4518;DHT22;2271;49.464;11.070;2022-08-01T09:47:19;26.20;99.90
4518;DHT22;2271;49.464;11.070;2022-08-01T09:49:56;26.50;99.90
4518;DHT22;2271;49.464;11.070;2022-08-01T09:52:24;27.00;99.90
4518;DHT22;2271;49.464;11.070;2022-08-01T09:57:19;27.10;99.90
4518;DHT22;2271;49.464;11.070;2022-08-01T09:59:51;27.10;99.90
4518;DHT22;2271;49.464;11.070;2022-08-01T10:02:33;27.10;99.90
4518;DHT22;2271;49.464;11.070;2022-08-01T10:05:00;27.50;99.90
4518;DHT22;2271;49.464;11.070;2022-08-01T10:07:26;27.80;99.90
4518;DHT22;2271;49.464;11.070;2022-08-01T10:09:52;27.80;99.90
4518;DHT22;2271;49.464;11.070;2022-08-01T10:12:20;27.80;99.90
4518;DHT22;2271;49.464;11.070;2022-08-01T10:14:47;28.10;99.90
4518;DHT22;2271;49.464;11.070;2022-08-01T10:17:16;28.40;99.90
4518;DHT22;2271;49.464;11.070;2022-08-01T10:19:42;28.70;99.90
4518;DHT22;2271;49.464;11.070;2022-08-01T10:22:13;28.90;99.90
4518;DHT22;2271;49.464;11.070;2022-08-01T10:24:44;29.10;99.90
4518;DHT22;2271;49.464;11.070;2022-08-01T10:27:11;29.10;99.90
4518;DHT22;2271;49.464;11.070;2022-08-01T10:29:59;28.90;99.90
4518;DHT22;2271;49.464;11.070;2022-08-01T10:32:34;28.60;99.90
4518;DHT22;2271;49.464;11.070;2022-08-01T10:35:03;28.30;99.90
4518;DHT22;2271;49.464;11.070;2022-08-01T10:37:29;27.90;99.90
4518;DHT22;2271;49.464;11.070;2022-08-01T10:39:56;27.70;99.90
4518;DHT22;2271;49.464;11.070;2022-08-01T10:42:22;27.80;99.90
4518;DHT22;2271;49.464;11.070;2022-08-01T10:44:48;27.90;99.90
4518;DHT22;2271;49.464;11.070;2022-08-01T10:47:18;27.90;99.90
4518;DHT22;2271;49.464;11.070;2022-08-01T10:49:53;28.10;99.90
4518;DHT22;2271;49.464;11.070;2022-08-01T10:52:21;28.30;99.90
4518;DHT22;2271;49.464;11.070;2022-08-01T10:54:47;28.60;99.90
4518;DHT22;2271;49.464;11.070;2022-08-01T10:57:14;28.80;99.90
4518;DHT22;2271;49.464;11.070;2022-08-01T10:59:52;29.10;99.90
4518;DHT22;2271;49.464;11.070;2022-08-01T11:02:32;29.30;99.90
4518;DHT22;2271;49.464;11.070;2022-08-01T11:05:12;29.60;99.90
4518;DHT22;2271;49.464;11.070;2022-08-01T11:07:48;29.70;99.90
4518;DHT22;2271;49.464;11.070;2022-08-01T11:12:50;29.40;99.90
4518;DHT22;2271;49.464;11.070;2022-08-01T11:15:17;29.10;99.90
4518;DHT22;2271;49.464;11.070;2022-08-01T11:17:52;28.80;99.90
4518;DHT22;2271;49.464;11.070;2022-08-01T11:30:53;28.70;99.90
4518;DHT22;2271;49.464;11.070;2022-08-01T11:38:45;29.20;99.90
4518;DHT22;2271;49.464;11.070;2022-08-01T11:44:14;29.60;99.90
4518;DHT22;2271;49.464;11.070;2022-08-01T11:46:59;29.70;99.90
4518;DHT22;2271;49.464;11.070;2022-08-01T11:52:14;29.50;99.90
4518;DHT22;2271;49.464;11.070;2022-08-01T11:54:48;29.70;99.90
4518;DHT22;2271;49.464;11.070;2022-08-01T11:57:22;29.60;99.90
4518;DHT22;2271;49.464;11.070;2022-08-01T11:59:53;29.30;99.90
4518;DHT22;2271;49.464;11.070;2022-08-01T12:02:25;29.00;99.90
4518;DHT22;2271;49.464;11.070;2022-08-01T12:04:59;28.80;99.90
4518;DHT22;2271;49.464;11.070;2022-08-01T12:07:27;28.60;99.90
4518;DHT22;2271;49.464;11.070;2022-08-01T12:10:02;28.60;99.90
4518;DHT22;2271;49.464;11.070;2022-08-01T12:12:30;28.50;99.90
4518;DHT22;2271;49.464;11.070;2022-08-01T12:14:57;28.40;99.90
4518;DHT22;2271;49.464;11.070;2022-08-01T12:17:35;28.40;99.90
4518;DHT22;2271;49.464;11.070;2022-08-01T12:20:06;28.30;99.90
4518;DHT22;2271;49.464;11.070;2022-08-01T12:22:32;28.30;99.90
4518;DHT22;2271;49.464;11.070;2022-08-01T12:25:08;28.10;99.90
4518;DHT22;2271;49.464;11.070;2022-08-01T12:27:35;27.70;99.90
4518;DHT22;2271;49.464;11.070;2022-08-01T12:30:02;27.50;99.90
4518;DHT22;2271;49.464;11.070;2022-08-01T12:32:32;27.40;99.90
4518;DHT22;2271;49.464;11.070;2022-08-01T12:35:18;27.10;99.90
4518;DHT22;2271;49.464;11.070;2022-08-01T12:37:54;26.90;99.90
4518;DHT22;2271;49.464;11.070;2022-08-01T12:40:28;26.90;99.90
4518;DHT22;2271;49.464;11.070;2022-08-01T12:42:56;27.30;99.90
4518;DHT22;2271;49.464;11.070;2022-08-01T12:45:25;27.90;99.90
4518;DHT22;2271;49.464;11.070;2022-08-01T12:47:56;28.40;99.90
4518;DHT22;2271;49.464;11.070;2022-08-01T12:50:27;28.70;99.90
4518;DHT22;2271;49.464;11.070;2022-08-01T12:52:56;28.80;99.90
4518;DHT22;2271;49.464;11.070;2022-08-01T12:55:26;28.60;99.90
4518;DHT22;2271;49.464;11.070;2022-08-01T12:58:09;28.90;99.90
4518;DHT22;2271;49.464;11.070;2022-08-01T13:00:36;29.00;99.00
4518;DHT22;2271;49.464;11.070;2022-08-01T13:03:07;29.20;99.00
4518;DHT22;2271;49.464;11.070;2022-08-01T13:05:51;29.30;98.40
4518;DHT22;2271;49.464;11.070;2022-08-01T13:08:20;29.50;98.20
4518;DHT22;2271;49.464;11.070;2022-08-01T13:10:46;29.40;97.90
4518;DHT22;2271;49.464;11.070;2022-08-01T13:13:14;29.20;98.10
4518;DHT22;2271;49.464;11.070;2022-08-01T13:15:42;29.00;98.90
4518;DHT22;2271;49.464;11.070;2022-08-01T13:18:30;28.80;99.90
4518;DHT22;2271;49.464;11.070;2022-08-01T13:21:14;28.50;99.90
4518;DHT22;2271;49.464;11.070;2022-08-01T13:23:41;28.40;99.90
4518;DHT22;2271;49.464;11.070;2022-08-01T13:26:07;28.30;99.90
4518;DHT22;2271;49.464;11.070;2022-08-01T13:28:33;28.30;99.90
4518;DHT22;2271;49.464;11.070;2022-08-01T13:31:06;28.30;99.90
4518;DHT22;2271;49.464;11.070;2022-08-01T13:36:07;28.30;99.90
4518;DHT22;2271;49.464;11.070;2022-08-01T13:38:33;28.30;99.90
4518;DHT22;2271;49.464;11.070;2022-08-01T13:41:17;28.30;99.90
4518;DHT22;2271;49.464;11.070;2022-08-01T13:43:43;28.20;99.90
4518;DHT22;2271;49.464;11.070;2022-08-01T13:46:08;28.10;99.90
4518;DHT22;2271;49.464;11.070;2022-08-01T13:48:34;28.10;99.90
4518;DHT22;2271;49.464;11.070;2022-08-01T13:51:00;28.10;99.90
4518;DHT22;2271;49.464;11.070;2022-08-01T13:53:26;28.10;99.90
4518;DHT22;2271;49.464;11.070;2022-08-01T13:55:52;28.00;99.90
4518;DHT22;2271;49.464;11.070;2022-08-01T13:58:18;28.10;99.90
4518;DHT22;2271;49.464;11.070;2022-08-01T14:00:44;28.10;99.90
4518;DHT22;2271;49.464;11.070;2022-08-01T14:03:10;28.20;99.90
4518;DHT22;2271;49.464;11.070;2022-08-01T14:05:37;28.10;99.90
4518;DHT22;2271;49.464;11.070;2022-08-01T14:08:03;28.00;99.90
4518;DHT22;2271;49.464;11.070;2022-08-01T14:10:29;28.10;99.90
4518;DHT22;2271;49.464;11.070;2022-08-01T14:12:57;28.20;99.90
4518;DHT22;2271;49.464;11.070;2022-08-01T14:15:24;28.20;99.90
4518;DHT22;2271;49.464;11.070;2022-08-01T14:17:50;28.30;99.90
4518;DHT22;2271;49.464;11.070;2022-08-01T14:20:16;28.30;99.90
4518;DHT22;2271;49.464;11.070;2022-08-01T14:22:45;28.40;99.90
4518;DHT22;2271;49.464;11.070;2022-08-01T14:25:11;28.40;99.80
4518;DHT22;2271;49.464;11.070;2022-08-01T14:27:37;28.40;99.90
4518;DHT22;2271;49.464;11.070;2022-08-01T14:30:05;28.40;99.90
4518;DHT22;2271;49.464;11.070;2022-08-01T14:32:32;28.40;99.30
4518;DHT22;2271;49.464;11.070;2022-08-01T14:34:59;28.40;99.50
4518;DHT22;2271;49.464;11.070;2022-08-01T14:37:25;28.40;99.60
4518;DHT22;2271;49.464;11.070;2022-08-01T14:39:50;28.40;99.60
4518;DHT22;2271;49.464;11.070;2022-08-01T14:42:16;28.50;99.40
4518;DHT22;2271;49.464;11.070;2022-08-01T14:44:42;28.50;99.10
4518;DHT22;2271;49.464;11.070;2022-08-01T14:47:07;28.60;99.00
4518;DHT22;2271;49.464;11.070;2022-08-01T14:49:33;28.60;99.40
4518;DHT22;2271;49.464;11.070;2022-08-01T14:51:59;28.70;99.40
4518;DHT22;2271;49.464;11.070;2022-08-01T14:54:24;28.70;99.10
4518;DHT22;2271;49.464;11.070;2022-08-01T14:56:50;28.70;98.60
4518;DHT22;2271;49.464;11.070;2022-08-01T14:59:18;28.60;98.80
4518;DHT22;2271;49.464;11.070;2022-08-01T15:01:44;28.60;98.80
4518;DHT22;2271;49.464;11.070;2022-08-01T15:04:09;28.60;98.90
4518;DHT22;2271;49.464;11.070;2022-08-01T15:06:35;28.70;99.00
4518;DHT22;2271;49.464;11.070;2022-08-01T15:09:01;28.70;99.40
4518;DHT22;2271;49.464;11.070;2022-08-01T15:11:26;28.70;99.30
4518;DHT22;2271;49.464;11.070;2022-08-01T15:13:52;28.80;98.80
4518;DHT22;2271;49.464;11.070;2022-08-01T15:16:36;28.80;98.80
4518;DHT22;2271;49.464;11.070;2022-08-01T15:19:03;28.70;98.30
4518;DHT22;2271;49.464;11.070;2022-08-01T15:21:28;28.60;98.10
4518;DHT22;2271;49.464;11.070;2022-08-01T15:23:54;28.70;98.10
4518;DHT22;2271;49.464;11.070;2022-08-01T15:26:20;28.60;98.20
4518;DHT22;2271;49.464;11.070;2022-08-01T15:28:46;28.70;98.10
4518;DHT22;2271;49.464;11.070;2022-08-01T15:31:12;28.60;97.70
4518;DHT22;2271;49.464;11.070;2022-08-01T15:33:38;28.50;97.70
4518;DHT22;2271;49.464;11.070;2022-08-01T15:36:04;28.40;97.30
4518;DHT22;2271;49.464;11.070;2022-08-01T15:38:29;28.30;97.60
4518;DHT22;2271;49.464;11.070;2022-08-01T15:40:55;28.30;97.60
4518;DHT22;2271;49.464;11.070;2022-08-01T15:43:21;28.10;98.10
4518;DHT22;2271;49.464;11.070;2022-08-01T15:45:46;28.10;98.40
4518;DHT22;2271;49.464;11.070;2022-08-01T15:48:12;28.10;98.00
4518;DHT22;2271;49.464;11.070;2022-08-01T15:50:38;28.10;98.30
4518;DHT22;2271;49.464;11.070;2022-08-01T15:53:04;28.10;97.80
4518;DHT22;2271;49.464;11.070;2022-08-01T15:55:30;28.00;97.90
4518;DHT22;2271;49.464;11.070;2022-08-01T15:57:55;28.00;98.40
4518;DHT22;2271;49.464;11.070;2022-08-01T16:00:21;27.90;99.20
4518;DHT22;2271;49.464;11.070;2022-08-01T16:02:47;27.90;99.90
4518;DHT22;2271;49.464;11.070;2022-08-01T16:05:13;27.90;99.90
4518;DHT22;2271;49.464;11.070;2022-08-01T16:07:38;27.80;99.90
4518;DHT22;2271;49.464;11.070;2022-08-01T16:10:05;27.80;99.70
4518;DHT22;2271;49.464;11.070;2022-08-01T16:12:31;27.70;99.60
4518;DHT22;2271;49.464;11.070;2022-08-01T16:14:57;27.70;99.70
4518;DHT22;2271;49.464;11.070;2022-08-01T16:17:23;27.70;99.70
4518;DHT22;2271;49.464;11.070;2022-08-01T16:19:48;27.70;99.90
4518;DHT22;2271;49.464;11.070;2022-08-01T16:22:15;27.60;99.90
4518;DHT22;2271;49.464;11.070;2022-08-01T16:24:41;27.50;99.90
4518;DHT22;2271;49.464;11.070;2022-08-01T16:27:06;27.50;99.90
4518;DHT22;2271;49.464;11.070;2022-08-01T16:29:32;27.40;99.90
4518;DHT22;2271;49.464;11.070;2022-08-01T16:31:59;27.30;99.90
4518;DHT22;2271;49.464;11.070;2022-08-01T16:34:26;27.20;99.90